METAR og TAF for ENBR

METAR og TAF for ENBR (Flesland). Data er hentet fra https://aviationweather.gov

Data at: 1535 UTC 11 Apr 2021

METAR for:ENBR (Bergen/Flesland Arpt, HO, NO)
Text:ENBR 111520Z 08006KT 030V130 9999 FEW040 07/M08 Q1016 NOSIG RMK WIND 1200FT 03005KT
Temperature: 7.0°C ( 45°F)
Dewpoint: -8.0°C ( 18°F) [RH = 33%]
Pressure (altimeter):30.00 inches Hg (1016.0 mb)
Winds:from the E (80 degrees) at 7 MPH (6 knots; 3.1 m/s)
Visibility:6 or more sm (10+ km)
Ceiling:at least 12,000 feet AGL
Clouds: few clouds at 4000 feet AGL

TAF for:ENBR (Bergen/Flesland Arpt, HO, NO) issued at 1154 UTC 11 Apr 2021
Text:TAF ENBR 1112/1212 36008KT 9999 FEW030
Forecast period:1200 UTC 11 April 2021 to 1200 UTC 12 April 2021
Forecast type:FROM: standard forecast or significant change
Winds:from the N (360 degrees) at 9 MPH (8 knots; 4.1 m/s)
Visibility:6 or more sm (10+ km)
Ceiling:at least 12,000 feet AGL
Clouds: few clouds at 3000 feet AGL

Comments are closed.